sensor_id;sensor_type;location;lat;lon;timestamp;temperature;humidity
28767;DHT22;15921;52.034;20.650;2024-02-28T00:01:52;9.90;99.90
28767;DHT22;15921;52.034;20.650;2024-02-28T00:04:18;10.00;99.90
28767;DHT22;15921;52.034;20.650;2024-02-28T00:06:44;10.00;99.90
28767;DHT22;15921;52.034;20.650;2024-02-28T00:09:12;10.00;99.90
28767;DHT22;15921;52.034;20.650;2024-02-28T00:11:43;10.00;99.90
28767;DHT22;15921;52.034;20.650;2024-02-28T00:14:09;10.10;99.90
28767;DHT22;15921;52.034;20.650;2024-02-28T00:16:36;10.10;99.90
28767;DHT22;15921;52.034;20.650;2024-02-28T00:19:01;10.10;99.90
28767;DHT22;15921;52.034;20.650;2024-02-28T00:21:27;10.10;99.90
28767;DHT22;15921;52.034;20.650;2024-02-28T00:23:53;10.10;99.90
28767;DHT22;15921;52.034;20.650;2024-02-28T00:26:18;10.10;99.90
28767;DHT22;15921;52.034;20.650;2024-02-28T00:28:44;10.10;99.90
28767;DHT22;15921;52.034;20.650;2024-02-28T00:31:10;10.10;99.90
28767;DHT22;15921;52.034;20.650;2024-02-28T00:33:35;10.10;99.90
28767;DHT22;15921;52.034;20.650;2024-02-28T00:36:01;10.20;99.90
28767;DHT22;15921;52.034;20.650;2024-02-28T00:38:27;10.10;99.90
28767;DHT22;15921;52.034;20.650;2024-02-28T00:40:53;10.10;99.90
28767;DHT22;15921;52.034;20.650;2024-02-28T00:43:19;10.20;99.90
28767;DHT22;15921;52.034;20.650;2024-02-28T00:45:44;10.20;99.90
28767;DHT22;15921;52.034;20.650;2024-02-28T00:48:10;10.20;99.90
28767;DHT22;15921;52.034;20.650;2024-02-28T00:50:36;10.10;99.90
28767;DHT22;15921;52.034;20.650;2024-02-28T00:53:01;10.10;99.90
28767;DHT22;15921;52.034;20.650;2024-02-28T00:55:28;10.10;99.90
28767;DHT22;15921;52.034;20.650;2024-02-28T00:57:53;10.10;99.90
28767;DHT22;15921;52.034;20.650;2024-02-28T01:00:19;10.10;99.90
28767;DHT22;15921;52.034;20.650;2024-02-28T01:02:45;10.10;99.90
28767;DHT22;15921;52.034;20.650;2024-02-28T01:05:11;10.10;99.90
28767;DHT22;15921;52.034;20.650;2024-02-28T01:07:36;10.10;99.90
28767;DHT22;15921;52.034;20.650;2024-02-28T01:10:03;10.20;99.90
28767;DHT22;15921;52.034;20.650;2024-02-28T01:12:29;10.20;99.90
28767;DHT22;15921;52.034;20.650;2024-02-28T01:14:55;10.20;99.90
28767;DHT22;15921;52.034;20.650;2024-02-28T01:17:21;10.30;99.90
28767;DHT22;15921;52.034;20.650;2024-02-28T01:19:47;10.30;99.90
28767;DHT22;15921;52.034;20.650;2024-02-28T01:22:13;10.30;99.90
28767;DHT22;15921;52.034;20.650;2024-02-28T01:24:38;10.30;99.90
28767;DHT22;15921;52.034;20.650;2024-02-28T01:27:04;10.30;99.90
28767;DHT22;15921;52.034;20.650;2024-02-28T01:29:30;10.30;99.90
28767;DHT22;15921;52.034;20.650;2024-02-28T01:31:56;10.20;99.90
28767;DHT22;15921;52.034;20.650;2024-02-28T01:34:21;10.20;99.90
28767;DHT22;15921;52.034;20.650;2024-02-28T01:36:47;10.30;99.90
28767;DHT22;15921;52.034;20.650;2024-02-28T01:39:13;10.20;99.90
28767;DHT22;15921;52.034;20.650;2024-02-28T01:41:39;10.20;99.90
28767;DHT22;15921;52.034;20.650;2024-02-28T01:44:05;10.20;99.90
28767;DHT22;15921;52.034;20.650;2024-02-28T01:46:31;10.20;99.90
28767;DHT22;15921;52.034;20.650;2024-02-28T01:48:57;10.20;99.90
28767;DHT22;15921;52.034;20.650;2024-02-28T01:51:24;10.20;99.90
28767;DHT22;15921;52.034;20.650;2024-02-28T01:53:54;10.20;99.90
28767;DHT22;15921;52.034;20.650;2024-02-28T01:56:20;10.20;99.90
28767;DHT22;15921;52.034;20.650;2024-02-28T01:58:49;10.20;99.90
28767;DHT22;15921;52.034;20.650;2024-02-28T02:01:15;10.20;99.90
28767;DHT22;15921;52.034;20.650;2024-02-28T02:03:43;10.20;99.90
28767;DHT22;15921;52.034;20.650;2024-02-28T02:06:09;10.30;99.90
28767;DHT22;15921;52.034;20.650;2024-02-28T02:08:36;10.20;99.90
28767;DHT22;15921;52.034;20.650;2024-02-28T02:11:03;10.20;99.90
28767;DHT22;15921;52.034;20.650;2024-02-28T02:13:29;10.20;99.90
28767;DHT22;15921;52.034;20.650;2024-02-28T02:15:54;10.20;99.90
28767;DHT22;15921;52.034;20.650;2024-02-28T02:18:20;10.20;99.90
28767;DHT22;15921;52.034;20.650;2024-02-28T02:20:53;10.20;99.90
28767;DHT22;15921;52.034;20.650;2024-02-28T02:23:20;10.20;99.90
28767;DHT22;15921;52.034;20.650;2024-02-28T02:25:47;10.20;99.90
28767;DHT22;15921;52.034;20.650;2024-02-28T02:28:13;10.10;99.90
28767;DHT22;15921;52.034;20.650;2024-02-28T02:30:39;10.10;99.90
28767;DHT22;15921;52.034;20.650;2024-02-28T02:33:08;10.20;99.90
28767;DHT22;15921;52.034;20.650;2024-02-28T02:35:34;10.20;99.90
28767;DHT22;15921;52.034;20.650;2024-02-28T02:38:00;10.20;99.90
28767;DHT22;15921;52.034;20.650;2024-02-28T02:40:26;10.20;99.90
28767;DHT22;15921;52.034;20.650;2024-02-28T02:42:51;10.20;99.90
28767;DHT22;15921;52.034;20.650;2024-02-28T02:45:17;10.20;99.90
28767;DHT22;15921;52.034;20.650;2024-02-28T02:47:43;10.20;99.90
28767;DHT22;15921;52.034;20.650;2024-02-28T02:50:11;10.20;99.90
28767;DHT22;15921;52.034;20.650;2024-02-28T02:52:37;10.20;99.90
28767;DHT22;15921;52.034;20.650;2024-02-28T02:55:03;10.30;99.90
28767;DHT22;15921;52.034;20.650;2024-02-28T02:57:29;10.30;99.90
28767;DHT22;15921;52.034;20.650;2024-02-28T02:59:57;10.30;99.90
28767;DHT22;15921;52.034;20.650;2024-02-28T03:02:23;10.40;99.90
28767;DHT22;15921;52.034;20.650;2024-02-28T03:04:49;10.40;99.90
28767;DHT22;15921;52.034;20.650;2024-02-28T03:07:14;10.40;99.90
28767;DHT22;15921;52.034;20.650;2024-02-28T03:09:40;10.40;99.90
28767;DHT22;15921;52.034;20.650;2024-02-28T03:12:06;10.40;99.90
28767;DHT22;15921;52.034;20.650;2024-02-28T03:14:35;10.50;99.90
28767;DHT22;15921;52.034;20.650;2024-02-28T03:17:00;10.50;99.90
28767;DHT22;15921;52.034;20.650;2024-02-28T03:19:27;10.50;99.90
28767;DHT22;15921;52.034;20.650;2024-02-28T03:21:53;10.50;99.90
28767;DHT22;15921;52.034;20.650;2024-02-28T03:24:18;10.60;99.90
28767;DHT22;15921;52.034;20.650;2024-02-28T03:26:44;10.60;99.90
28767;DHT22;15921;52.034;20.650;2024-02-28T03:29:10;10.60;99.90
28767;DHT22;15921;52.034;20.650;2024-02-28T03:31:35;10.60;99.90
28767;DHT22;15921;52.034;20.650;2024-02-28T03:34:01;10.70;99.90
28767;DHT22;15921;52.034;20.650;2024-02-28T03:36:28;10.70;99.90
28767;DHT22;15921;52.034;20.650;2024-02-28T03:38:54;10.70;99.90
28767;DHT22;15921;52.034;20.650;2024-02-28T03:41:19;10.70;99.90
28767;DHT22;15921;52.034;20.650;2024-02-28T03:43:45;10.70;99.90
28767;DHT22;15921;52.034;20.650;2024-02-28T03:46:11;10.70;99.90
28767;DHT22;15921;52.034;20.650;2024-02-28T03:48:37;10.70;99.90
28767;DHT22;15921;52.034;20.650;2024-02-28T03:51:03;10.70;99.90
28767;DHT22;15921;52.034;20.650;2024-02-28T03:53:28;10.70;99.90
28767;DHT22;15921;52.034;20.650;2024-02-28T03:55:54;10.60;99.90
28767;DHT22;15921;52.034;20.650;2024-02-28T03:58:20;10.60;99.90
28767;DHT22;15921;52.034;20.650;2024-02-28T04:00:45;10.60;99.90
28767;DHT22;15921;52.034;20.650;2024-02-28T04:03:11;10.60;99.90
28767;DHT22;15921;52.034;20.650;2024-02-28T04:05:39;10.50;99.90
28767;DHT22;15921;52.034;20.650;2024-02-28T04:08:05;10.50;99.90
28767;DHT22;15921;52.034;20.650;2024-02-28T04:10:31;10.50;99.90
28767;DHT22;15921;52.034;20.650;2024-02-28T04:12:57;10.40;99.90
28767;DHT22;15921;52.034;20.650;2024-02-28T04:15:22;10.30;99.90
28767;DHT22;15921;52.034;20.650;2024-02-28T04:17:51;10.20;99.90
28767;DHT22;15921;52.034;20.650;2024-02-28T04:20:17;10.10;99.90
28767;DHT22;15921;52.034;20.650;2024-02-28T04:22:43;10.10;99.90
28767;DHT22;15921;52.034;20.650;2024-02-28T04:25:09;10.10;99.90
28767;DHT22;15921;52.034;20.650;2024-02-28T04:27:36;10.10;99.90
28767;DHT22;15921;52.034;20.650;2024-02-28T04:30:02;10.00;99.90
28767;DHT22;15921;52.034;20.650;2024-02-28T04:32:28;10.00;99.90
28767;DHT22;15921;52.034;20.650;2024-02-28T04:34:53;10.00;99.90
28767;DHT22;15921;52.034;20.650;2024-02-28T04:37:19;10.00;99.90
28767;DHT22;15921;52.034;20.650;2024-02-28T04:39:45;9.90;99.90
28767;DHT22;15921;52.034;20.650;2024-02-28T04:42:10;9.90;99.90
28767;DHT22;15921;52.034;20.650;2024-02-28T04:44:36;9.90;99.90
28767;DHT22;15921;52.034;20.650;2024-02-28T04:47:02;9.80;99.90
28767;DHT22;15921;52.034;20.650;2024-02-28T04:49:28;9.80;99.90
28767;DHT22;15921;52.034;20.650;2024-02-28T04:51:53;9.90;99.90
28767;DHT22;15921;52.034;20.650;2024-02-28T04:54:19;9.90;99.90
28767;DHT22;15921;52.034;20.650;2024-02-28T04:56:45;9.90;99.90
28767;DHT22;15921;52.034;20.650;2024-02-28T04:59:12;9.90;99.90
28767;DHT22;15921;52.034;20.650;2024-02-28T05:01:40;9.90;99.90
28767;DHT22;15921;52.034;20.650;2024-02-28T05:04:07;9.90;99.90
28767;DHT22;15921;52.034;20.650;2024-02-28T05:06:34;9.90;99.90
28767;DHT22;15921;52.034;20.650;2024-02-28T05:08:59;9.90;99.90
28767;DHT22;15921;52.034;20.650;2024-02-28T05:11:25;9.90;99.90
28767;DHT22;15921;52.034;20.650;2024-02-28T05:13:51;9.80;99.90
28767;DHT22;15921;52.034;20.650;2024-02-28T05:16:16;9.80;99.90
28767;DHT22;15921;52.034;20.650;2024-02-28T05:18:44;9.80;99.90
28767;DHT22;15921;52.034;20.650;2024-02-28T05:21:11;9.80;99.90
28767;DHT22;15921;52.034;20.650;2024-02-28T05:23:37;9.80;99.90
28767;DHT22;15921;52.034;20.650;2024-02-28T05:26:03;9.80;99.90
28767;DHT22;15921;52.034;20.650;2024-02-28T05:28:33;9.90;99.90
28767;DHT22;15921;52.034;20.650;2024-02-28T05:31:02;9.90;99.90
28767;DHT22;15921;52.034;20.650;2024-02-28T05:33:35;9.90;99.90
28767;DHT22;15921;52.034;20.650;2024-02-28T05:36:01;9.90;99.90
28767;DHT22;15921;52.034;20.650;2024-02-28T05:38:26;9.90;99.90
28767;DHT22;15921;52.034;20.650;2024-02-28T05:40:52;9.90;99.90
28767;DHT22;15921;52.034;20.650;2024-02-28T05:43:18;9.90;99.90
28767;DHT22;15921;52.034;20.650;2024-02-28T05:45:43;10.00;99.90
28767;DHT22;15921;52.034;20.650;2024-02-28T05:48:09;10.00;99.90
28767;DHT22;15921;52.034;20.650;2024-02-28T05:50:35;10.00;99.90
28767;DHT22;15921;52.034;20.650;2024-02-28T05:53:00;10.00;99.90
28767;DHT22;15921;52.034;20.650;2024-02-28T05:55:26;10.00;99.90
28767;DHT22;15921;52.034;20.650;2024-02-28T05:57:53;10.10;99.90
28767;DHT22;15921;52.034;20.650;2024-02-28T06:00:19;10.10;99.90
28767;DHT22;15921;52.034;20.650;2024-02-28T06:02:44;10.10;99.90
28767;DHT22;15921;52.034;20.650;2024-02-28T06:05:10;10.10;99.90
28767;DHT22;15921;52.034;20.650;2024-02-28T06:07:36;10.20;99.90
28767;DHT22;15921;52.034;20.650;2024-02-28T06:10:01;10.30;99.90
28767;DHT22;15921;52.034;20.650;2024-02-28T06:12:27;10.30;99.90
28767;DHT22;15921;52.034;20.650;2024-02-28T06:14:53;10.40;99.90
28767;DHT22;15921;52.034;20.650;2024-02-28T06:17:28;10.40;99.90
28767;DHT22;15921;52.034;20.650;2024-02-28T06:20:11;10.50;99.90
28767;DHT22;15921;52.034;20.650;2024-02-28T06:22:37;10.50;99.90
28767;DHT22;15921;52.034;20.650;2024-02-28T06:25:02;10.50;99.90
28767;DHT22;15921;52.034;20.650;2024-02-28T06:27:33;10.50;99.90
28767;DHT22;15921;52.034;20.650;2024-02-28T06:29:59;10.60;99.90
28767;DHT22;15921;52.034;20.650;2024-02-28T06:32:25;10.60;99.90
28767;DHT22;15921;52.034;20.650;2024-02-28T06:34:51;10.60;99.90
28767;DHT22;15921;52.034;20.650;2024-02-28T06:37:16;10.70;99.90
28767;DHT22;15921;52.034;20.650;2024-02-28T06:39:42;10.70;99.90
28767;DHT22;15921;52.034;20.650;2024-02-28T06:42:07;10.80;99.90
28767;DHT22;15921;52.034;20.650;2024-02-28T06:44:33;10.90;99.90
28767;DHT22;15921;52.034;20.650;2024-02-28T06:46:59;10.90;99.90
28767;DHT22;15921;52.034;20.650;2024-02-28T06:49:24;11.00;99.90
28767;DHT22;15921;52.034;20.650;2024-02-28T06:51:51;11.10;99.90
28767;DHT22;15921;52.034;20.650;2024-02-28T06:54:16;11.10;99.90
28767;DHT22;15921;52.034;20.650;2024-02-28T06:56:42;11.10;99.90
28767;DHT22;15921;52.034;20.650;2024-02-28T06:59:08;11.20;99.90
28767;DHT22;15921;52.034;20.650;2024-02-28T07:01:33;11.30;99.90
28767;DHT22;15921;52.034;20.650;2024-02-28T07:03:59;11.40;99.90
28767;DHT22;15921;52.034;20.650;2024-02-28T07:06:25;11.50;99.90
28767;DHT22;15921;52.034;20.650;2024-02-28T07:08:50;11.60;99.90
28767;DHT22;15921;52.034;20.650;2024-02-28T07:11:16;11.70;99.90
28767;DHT22;15921;52.034;20.650;2024-02-28T07:13:42;11.80;99.90
28767;DHT22;15921;52.034;20.650;2024-02-28T07:16:07;11.80;99.90
28767;DHT22;15921;52.034;20.650;2024-02-28T07:18:33;11.90;99.90
28767;DHT22;15921;52.034;20.650;2024-02-28T07:20:59;11.90;99.90
28767;DHT22;15921;52.034;20.650;2024-02-28T07:23:25;11.90;99.90
28767;DHT22;15921;52.034;20.650;2024-02-28T07:25:51;12.00;99.90
28767;DHT22;15921;52.034;20.650;2024-02-28T07:28:16;12.10;99.90
28767;DHT22;15921;52.034;20.650;2024-02-28T07:30:42;12.20;99.90
28767;DHT22;15921;52.034;20.650;2024-02-28T07:33:09;12.30;99.90
28767;DHT22;15921;52.034;20.650;2024-02-28T07:35:48;12.30;99.90
28767;DHT22;15921;52.034;20.650;2024-02-28T07:38:14;12.40;99.90
28767;DHT22;15921;52.034;20.650;2024-02-28T07:40:40;12.40;99.90
28767;DHT22;15921;52.034;20.650;2024-02-28T07:43:05;12.50;99.90
28767;DHT22;15921;52.034;20.650;2024-02-28T07:45:31;12.50;99.90
28767;DHT22;15921;52.034;20.650;2024-02-28T07:47:57;12.50;99.90
28767;DHT22;15921;52.034;20.650;2024-02-28T07:50:23;12.60;99.90
28767;DHT22;15921;52.034;20.650;2024-02-28T07:52:48;12.50;99.90
28767;DHT22;15921;52.034;20.650;2024-02-28T07:55:14;12.50;99.90
28767;DHT22;15921;52.034;20.650;2024-02-28T07:57:40;12.50;99.90
28767;DHT22;15921;52.034;20.650;2024-02-28T08:00:06;12.50;99.90
28767;DHT22;15921;52.034;20.650;2024-02-28T08:02:32;12.40;99.90
28767;DHT22;15921;52.034;20.650;2024-02-28T08:04:59;12.40;99.90
28767;DHT22;15921;52.034;20.650;2024-02-28T08:07:24;12.40;99.90
28767;DHT22;15921;52.034;20.650;2024-02-28T08:09:50;12.40;99.90
28767;DHT22;15921;52.034;20.650;2024-02-28T08:12:16;12.50;99.90
28767;DHT22;15921;52.034;20.650;2024-02-28T08:14:41;12.50;99.90
28767;DHT22;15921;52.034;20.650;2024-02-28T08:17:07;12.50;99.90
28767;DHT22;15921;52.034;20.650;2024-02-28T08:19:33;12.50;99.90
28767;DHT22;15921;52.034;20.650;2024-02-28T08:22:00;12.60;99.90
28767;DHT22;15921;52.034;20.650;2024-02-28T08:24:26;12.60;99.90
28767;DHT22;15921;52.034;20.650;2024-02-28T08:26:52;12.60;99.90
28767;DHT22;15921;52.034;20.650;2024-02-28T08:29:17;12.60;99.90
28767;DHT22;15921;52.034;20.650;2024-02-28T08:31:44;12.60;99.90
28767;DHT22;15921;52.034;20.650;2024-02-28T08:34:10;12.60;99.90
28767;DHT22;15921;52.034;20.650;2024-02-28T08:36:35;12.60;99.90
28767;DHT22;15921;52.034;20.650;2024-02-28T08:39:02;12.60;99.90
28767;DHT22;15921;52.034;20.650;2024-02-28T08:41:34;12.70;99.90
28767;DHT22;15921;52.034;20.650;2024-02-28T08:43:59;12.70;99.90
28767;DHT22;15921;52.034;20.650;2024-02-28T08:46:25;12.80;99.90
28767;DHT22;15921;52.034;20.650;2024-02-28T08:48:51;12.80;99.90
28767;DHT22;15921;52.034;20.650;2024-02-28T08:51:16;12.80;99.90
28767;DHT22;15921;52.034;20.650;2024-02-28T08:53:42;12.90;99.90
28767;DHT22;15921;52.034;20.650;2024-02-28T08:56:07;12.90;99.90
28767;DHT22;15921;52.034;20.650;2024-02-28T08:58:33;12.90;99.90
28767;DHT22;15921;52.034;20.650;2024-02-28T09:00:59;13.00;99.90
28767;DHT22;15921;52.034;20.650;2024-02-28T09:03:25;13.20;99.90
28767;DHT22;15921;52.034;20.650;2024-02-28T09:05:51;13.40;99.90
28767;DHT22;15921;52.034;20.650;2024-02-28T09:08:18;13.60;99.90
28767;DHT22;15921;52.034;20.650;2024-02-28T09:10:43;13.80;99.90
28767;DHT22;15921;52.034;20.650;2024-02-28T09:13:09;13.90;99.90
28767;DHT22;15921;52.034;20.650;2024-02-28T09:15:37;14.00;99.90
28767;DHT22;15921;52.034;20.650;2024-02-28T09:18:03;14.00;99.90
28767;DHT22;15921;52.034;20.650;2024-02-28T09:20:29;13.90;99.90
28767;DHT22;15921;52.034;20.650;2024-02-28T09:22:55;13.90;99.90
28767;DHT22;15921;52.034;20.650;2024-02-28T09:25:20;14.00;99.90
28767;DHT22;15921;52.034;20.650;2024-02-28T09:27:47;14.10;99.90
28767;DHT22;15921;52.034;20.650;2024-02-28T09:30:13;14.10;99.90
28767;DHT22;15921;52.034;20.650;2024-02-28T09:32:39;14.00;99.90
28767;DHT22;15921;52.034;20.650;2024-02-28T09:35:05;13.80;99.90
28767;DHT22;15921;52.034;20.650;2024-02-28T09:37:32;13.70;99.90
28767;DHT22;15921;52.034;20.650;2024-02-28T09:39:58;13.70;99.90
28767;DHT22;15921;52.034;20.650;2024-02-28T09:42:24;13.70;99.90
28767;DHT22;15921;52.034;20.650;2024-02-28T09:44:49;13.70;99.90
28767;DHT22;15921;52.034;20.650;2024-02-28T09:47:16;13.70;99.90
28767;DHT22;15921;52.034;20.650;2024-02-28T09:49:42;13.60;99.90
28767;DHT22;15921;52.034;20.650;2024-02-28T09:52:08;13.60;99.90
28767;DHT22;15921;52.034;20.650;2024-02-28T09:54:34;13.60;99.90
28767;DHT22;15921;52.034;20.650;2024-02-28T09:57:00;13.40;99.90
28767;DHT22;15921;52.034;20.650;2024-02-28T09:59:26;13.30;99.90
28767;DHT22;15921;52.034;20.650;2024-02-28T10:01:57;13.30;99.90
28767;DHT22;15921;52.034;20.650;2024-02-28T10:04:26;13.30;99.90
28767;DHT22;15921;52.034;20.650;2024-02-28T10:06:53;13.30;99.90
28767;DHT22;15921;52.034;20.650;2024-02-28T10:09:19;13.40;99.90
28767;DHT22;15921;52.034;20.650;2024-02-28T10:11:45;13.50;99.90
28767;DHT22;15921;52.034;20.650;2024-02-28T10:14:12;13.60;99.90
28767;DHT22;15921;52.034;20.650;2024-02-28T10:16:42;13.70;99.90
28767;DHT22;15921;52.034;20.650;2024-02-28T10:19:08;13.90;99.90
28767;DHT22;15921;52.034;20.650;2024-02-28T10:21:34;14.00;99.90
28767;DHT22;15921;52.034;20.650;2024-02-28T10:23:59;14.10;99.90
28767;DHT22;15921;52.034;20.650;2024-02-28T10:26:25;14.00;99.90
28767;DHT22;15921;52.034;20.650;2024-02-28T10:28:51;13.80;99.90
28767;DHT22;15921;52.034;20.650;2024-02-28T10:31:17;13.90;99.90
28767;DHT22;15921;52.034;20.650;2024-02-28T10:33:43;13.80;99.90
28767;DHT22;15921;52.034;20.650;2024-02-28T10:36:13;13.70;99.90
28767;DHT22;15921;52.034;20.650;2024-02-28T10:38:39;13.60;99.90
28767;DHT22;15921;52.034;20.650;2024-02-28T10:41:05;13.50;99.90
28767;DHT22;15921;52.034;20.650;2024-02-28T10:43:31;13.50;99.90
28767;DHT22;15921;52.034;20.650;2024-02-28T10:46:00;13.40;99.90
28767;DHT22;15921;52.034;20.650;2024-02-28T10:48:27;13.50;99.90
28767;DHT22;15921;52.034;20.650;2024-02-28T10:50:53;13.50;99.90
28767;DHT22;15921;52.034;20.650;2024-02-28T10:53:36;13.60;99.90
28767;DHT22;15921;52.034;20.650;2024-02-28T10:56:04;13.50;99.90
28767;DHT22;15921;52.034;20.650;2024-02-28T10:58:37;13.40;99.90
28767;DHT22;15921;52.034;20.650;2024-02-28T11:01:07;13.20;99.90
28767;DHT22;15921;52.034;20.650;2024-02-28T11:03:34;13.20;99.90
28767;DHT22;15921;52.034;20.650;2024-02-28T11:05:59;13.10;99.90
28767;DHT22;15921;52.034;20.650;2024-02-28T11:08:27;13.00;99.90
28767;DHT22;15921;52.034;20.650;2024-02-28T11:11:03;13.00;99.90
28767;DHT22;15921;52.034;20.650;2024-02-28T11:13:30;13.00;99.90
28767;DHT22;15921;52.034;20.650;2024-02-28T11:16:10;12.90;99.90
28767;DHT22;15921;52.034;20.650;2024-02-28T11:18:35;12.80;99.90
28767;DHT22;15921;52.034;20.650;2024-02-28T11:21:02;12.70;99.90
28767;DHT22;15921;52.034;20.650;2024-02-28T11:23:36;12.70;99.90
28767;DHT22;15921;52.034;20.650;2024-02-28T11:26:03;12.70;99.90
28767;DHT22;15921;52.034;20.650;2024-02-28T11:28:29;12.70;99.90
28767;DHT22;15921;52.034;20.650;2024-02-28T11:30:55;12.60;99.90
28767;DHT22;15921;52.034;20.650;2024-02-28T11:33:21;12.60;99.90
28767;DHT22;15921;52.034;20.650;2024-02-28T11:35:57;12.60;99.90
28767;DHT22;15921;52.034;20.650;2024-02-28T11:38:26;12.70;99.90
28767;DHT22;15921;52.034;20.650;2024-02-28T11:40:52;12.80;99.90
28767;DHT22;15921;52.034;20.650;2024-02-28T11:43:18;12.80;99.90
28767;DHT22;15921;52.034;20.650;2024-02-28T11:45:44;12.90;99.90
28767;DHT22;15921;52.034;20.650;2024-02-28T11:48:15;12.90;99.90
28767;DHT22;15921;52.034;20.650;2024-02-28T11:50:42;13.00;99.90
28767;DHT22;15921;52.034;20.650;2024-02-28T11:53:08;13.00;99.90
28767;DHT22;15921;52.034;20.650;2024-02-28T11:55:34;12.90;99.90
28767;DHT22;15921;52.034;20.650;2024-02-28T11:58:01;12.90;99.90
28767;DHT22;15921;52.034;20.650;2024-02-28T12:00:27;12.80;99.90
28767;DHT22;15921;52.034;20.650;2024-02-28T12:02:52;12.80;99.90
28767;DHT22;15921;52.034;20.650;2024-02-28T12:05:29;12.70;99.90
28767;DHT22;15921;52.034;20.650;2024-02-28T12:07:55;12.60;99.90
28767;DHT22;15921;52.034;20.650;2024-02-28T12:10:22;12.50;99.90
28767;DHT22;15921;52.034;20.650;2024-02-28T12:12:48;12.40;99.90
28767;DHT22;15921;52.034;20.650;2024-02-28T12:15:15;12.20;99.90
28767;DHT22;15921;52.034;20.650;2024-02-28T12:17:43;12.10;99.90
28767;DHT22;15921;52.034;20.650;2024-02-28T12:20:09;11.70;99.90
28767;DHT22;15921;52.034;20.650;2024-02-28T12:22:34;11.60;99.90
28767;DHT22;15921;52.034;20.650;2024-02-28T12:25:00;11.50;99.90
28767;DHT22;15921;52.034;20.650;2024-02-28T12:27:30;11.30;99.90
28767;DHT22;15921;52.034;20.650;2024-02-28T12:29:56;11.30;99.90
28767;DHT22;15921;52.034;20.650;2024-02-28T12:32:22;11.20;99.90
28767;DHT22;15921;52.034;20.650;2024-02-28T12:34:48;11.10;99.90
28767;DHT22;15921;52.034;20.650;2024-02-28T12:37:14;11.00;99.90
28767;DHT22;15921;52.034;20.650;2024-02-28T12:39:39;10.90;99.90
28767;DHT22;15921;52.034;20.650;2024-02-28T12:42:06;10.80;99.90
28767;DHT22;15921;52.034;20.650;2024-02-28T12:44:32;10.70;99.90
28767;DHT22;15921;52.034;20.650;2024-02-28T12:46:58;10.80;99.90
28767;DHT22;15921;52.034;20.650;2024-02-28T12:49:24;10.70;99.90
28767;DHT22;15921;52.034;20.650;2024-02-28T12:51:49;10.80;99.90
28767;DHT22;15921;52.034;20.650;2024-02-28T12:54:16;10.90;99.90
28767;DHT22;15921;52.034;20.650;2024-02-28T12:56:43;10.90;99.90
28767;DHT22;15921;52.034;20.650;2024-02-28T12:59:10;10.80;99.90
28767;DHT22;15921;52.034;20.650;2024-02-28T13:01:36;10.70;99.90
28767;DHT22;15921;52.034;20.650;2024-02-28T13:04:02;10.70;99.90
28767;DHT22;15921;52.034;20.650;2024-02-28T13:06:28;10.70;99.90
28767;DHT22;15921;52.034;20.650;2024-02-28T13:08:54;10.60;99.90
28767;DHT22;15921;52.034;20.650;2024-02-28T13:11:22;10.50;99.90
28767;DHT22;15921;52.034;20.650;2024-02-28T13:13:48;10.50;99.90
28767;DHT22;15921;52.034;20.650;2024-02-28T13:16:18;10.50;99.90
28767;DHT22;15921;52.034;20.650;2024-02-28T13:18:44;10.40;99.90
28767;DHT22;15921;52.034;20.650;2024-02-28T13:21:10;10.40;99.90
28767;DHT22;15921;52.034;20.650;2024-02-28T13:23:37;10.30;99.90
28767;DHT22;15921;52.034;20.650;2024-02-28T13:26:06;10.30;99.90
28767;DHT22;15921;52.034;20.650;2024-02-28T13:28:33;10.30;99.90
28767;DHT22;15921;52.034;20.650;2024-02-28T13:30:59;10.20;99.90
28767;DHT22;15921;52.034;20.650;2024-02-28T13:33:26;10.20;99.90
28767;DHT22;15921;52.034;20.650;2024-02-28T13:35:52;10.20;99.90
28767;DHT22;15921;52.034;20.650;2024-02-28T13:38:18;10.20;99.90
28767;DHT22;15921;52.034;20.650;2024-02-28T13:40:48;10.30;99.90
28767;DHT22;15921;52.034;20.650;2024-02-28T13:43:15;10.30;99.90
28767;DHT22;15921;52.034;20.650;2024-02-28T13:45:46;10.20;99.90
28767;DHT22;15921;52.034;20.650;2024-02-28T13:48:22;10.20;99.90
28767;DHT22;15921;52.034;20.650;2024-02-28T13:50:50;10.10;99.90
28767;DHT22;15921;52.034;20.650;2024-02-28T13:53:16;10.00;99.90
28767;DHT22;15921;52.034;20.650;2024-02-28T13:55:43;10.00;99.90
28767;DHT22;15921;52.034;20.650;2024-02-28T13:58:10;9.90;99.90
28767;DHT22;15921;52.034;20.650;2024-02-28T14:00:39;10.00;99.90
28767;DHT22;15921;52.034;20.650;2024-02-28T14:03:06;10.00;99.90
28767;DHT22;15921;52.034;20.650;2024-02-28T14:05:32;10.00;99.90
28767;DHT22;15921;52.034;20.650;2024-02-28T14:07:58;10.00;99.90
28767;DHT22;15921;52.034;20.650;2024-02-28T14:10:24;10.00;99.90
28767;DHT22;15921;52.034;20.650;2024-02-28T14:12:50;9.90;99.90
28767;DHT22;15921;52.034;20.650;2024-02-28T14:15:18;9.90;99.90
28767;DHT22;15921;52.034;20.650;2024-02-28T14:17:44;9.90;99.90
28767;DHT22;15921;52.034;20.650;2024-02-28T14:20:10;9.90;99.90
28767;DHT22;15921;52.034;20.650;2024-02-28T14:22:36;9.90;99.90
28767;DHT22;15921;52.034;20.650;2024-02-28T14:25:02;9.90;99.90
28767;DHT22;15921;52.034;20.650;2024-02-28T14:27:29;9.80;99.90
28767;DHT22;15921;52.034;20.650;2024-02-28T14:29:58;9.80;99.90
28767;DHT22;15921;52.034;20.650;2024-02-28T14:32:24;9.80;99.90
28767;DHT22;15921;52.034;20.650;2024-02-28T14:34:49;9.70;99.90
28767;DHT22;15921;52.034;20.650;2024-02-28T14:37:16;9.70;99.90
28767;DHT22;15921;52.034;20.650;2024-02-28T14:39:42;9.70;99.90
28767;DHT22;15921;52.034;20.650;2024-02-28T14:42:08;9.70;99.90
28767;DHT22;15921;52.034;20.650;2024-02-28T14:44:34;9.70;99.90
28767;DHT22;15921;52.034;20.650;2024-02-28T14:47:00;9.70;99.90
28767;DHT22;15921;52.034;20.650;2024-02-28T14:49:25;9.70;99.90
28767;DHT22;15921;52.034;20.650;2024-02-28T14:51:52;9.70;99.90
28767;DHT22;15921;52.034;20.650;2024-02-28T14:54:17;9.80;99.90
28767;DHT22;15921;52.034;20.650;2024-02-28T14:56:48;9.80;99.90
28767;DHT22;15921;52.034;20.650;2024-02-28T14:59:14;9.80;99.90
28767;DHT22;15921;52.034;20.650;2024-02-28T15:01:40;9.80;99.90
28767;DHT22;15921;52.034;20.650;2024-02-28T15:04:05;9.70;99.90
28767;DHT22;15921;52.034;20.650;2024-02-28T15:06:33;9.70;99.90
28767;DHT22;15921;52.034;20.650;2024-02-28T15:08:59;9.80;99.90
28767;DHT22;15921;52.034;20.650;2024-02-28T15:11:25;9.80;99.90
28767;DHT22;15921;52.034;20.650;2024-02-28T15:13:50;9.80;99.90